Time;durP1;ratioP1;P1;durP2;ratioP2;P2;SDS_P1;SDS_P2;PMS_P1;PMS_P2;Temp;Humidity;BMP_temperature;BMP_pressure;BME280_temperature;BME280_humidity;BME280_pressure;Samples;Min_cycle;Max_cycle;Signal;HPM_P1;HPM_P2
2022/02/28 00:01:23;;;;;;;22.23;17.08;;;;;;;;;;5020480;28;20421;-89
2022/02/28 00:03:50;;;;;;;26.83;17.75;;;;;;;;;;5024655;28;20405;-88
2022/02/28 00:06:17;;;;;;;26.15;17.52;;;;;;;;;;5020475;28;20405;-87
2022/02/28 00:08:44;;;;;;;24.85;17.67;;;;;;;;;;5017149;28;20419;-89
2022/02/28 00:11:13;;;;;;;22.48;16.58;;;;;;;;;;5024216;28;21175;-88
2022/02/28 00:13:40;;;;;;;22.58;16.48;;;;;;;;;;5020395;28;20485;-89
2022/02/28 00:16:07;;;;;;;25.35;17.92;;;;;;;;;;5024193;28;20668;-87
2022/02/28 00:18:34;;;;;;;27.88;18.70;;;;;;;;;;5023839;28;20420;-88
2022/02/28 00:21:02;;;;;;;25.33;18.77;;;;;;;;;;5024041;28;20467;-87
2022/02/28 00:23:29;;;;;;;25.53;19.10;;;;;;;;;;5024546;28;20965;-88
2022/02/28 00:25:57;;;;;;;25.50;18.35;;;;;;;;;;5024238;28;20796;-89
2022/02/28 00:28:25;;;;;;;27.98;19.30;;;;;;;;;;5017683;28;20467;-88
2022/02/28 00:30:53;;;;;;;26.38;18.52;;;;;;;;;;5016800;28;20410;-88
2022/02/28 00:33:20;;;;;;;25.75;19.05;;;;;;;;;;5021139;28;20702;-88
2022/02/28 00:35:47;;;;;;;25.60;18.35;;;;;;;;;;5020320;28;20747;-88
2022/02/28 00:38:14;;;;;;;25.23;19.00;;;;;;;;;;5024024;28;20413;-85
2022/02/28 00:40:41;;;;;;;27.20;18.80;;;;;;;;;;5024034;28;20405;-88
2022/02/28 00:43:09;;;;;;;25.95;18.10;;;;;;;;;;5024312;28;20402;-87
2022/02/28 00:45:37;;;;;;;26.10;18.50;;;;;;;;;;5023728;28;20935;-87
2022/02/28 00:48:05;;;;;;;25.40;18.85;;;;;;;;;;5023862;28;20421;-87
2022/02/28 00:50:32;;;;;;;25.00;19.23;;;;;;;;;;5019830;28;20415;-88
2022/02/28 00:52:59;;;;;;;26.58;18.23;;;;;;;;;;5024087;28;20401;-88
2022/02/28 00:55:26;;;;;;;25.42;18.45;;;;;;;;;;5024424;28;20785;-87
2022/02/28 00:57:53;;;;;;;24.13;17.83;;;;;;;;;;5016984;28;20772;-89
2022/02/28 01:00:21;;;;;;;26.15;18.75;;;;;;;;;;5019969;28;20401;-87
2022/02/28 01:02:51;;;;;;;25.15;18.63;;;;;;;;;;5023722;28;20475;-88
2022/02/28 01:05:20;;;;;;;24.30;18.40;;;;;;;;;;5019882;28;20906;-89
2022/02/28 01:07:48;;;;;;;24.87;18.33;;;;;;;;;;5020517;28;20445;-88
2022/02/28 01:10:18;;;;;;;26.10;18.77;;;;;;;;;;5015848;28;20421;-88
2022/02/28 01:12:46;;;;;;;26.08;18.67;;;;;;;;;;5023598;28;20828;-88
2022/02/28 01:15:14;;;;;;;26.15;18.65;;;;;;;;;;5024088;28;20413;-88
2022/02/28 01:17:42;;;;;;;26.42;18.88;;;;;;;;;;5024058;28;20800;-86
2022/02/28 01:20:12;;;;;;;24.55;17.92;;;;;;;;;;5020545;28;20417;-88
2022/02/28 01:22:39;;;;;;;26.23;19.05;;;;;;;;;;5010709;28;20816;-87
2022/02/28 01:25:07;;;;;;;25.65;18.83;;;;;;;;;;5020521;28;20457;-89
2022/02/28 01:27:34;;;;;;;27.02;18.63;;;;;;;;;;5024032;28;20397;-89
2022/02/28 01:30:02;;;;;;;27.02;18.67;;;;;;;;;;5021191;28;20417;-89
2022/02/28 01:32:29;;;;;;;25.50;18.27;;;;;;;;;;5028351;28;20397;-89
2022/02/28 01:34:56;;;;;;;27.73;18.75;;;;;;;;;;5016525;28;20398;-88
2022/02/28 01:37:24;;;;;;;25.48;18.65;;;;;;;;;;5025029;28;20420;-89
2022/02/28 01:39:51;;;;;;;27.92;18.33;;;;;;;;;;5023753;28;20761;-89
2022/02/28 01:42:18;;;;;;;25.88;18.63;;;;;;;;;;5028171;28;20414;-89
2022/02/28 01:44:45;;;;;;;26.17;18.20;;;;;;;;;;5026043;28;20450;-89
2022/02/28 01:47:12;;;;;;;23.90;17.88;;;;;;;;;;5027131;28;20429;-88
2022/02/28 01:49:39;;;;;;;24.63;17.77;;;;;;;;;;5028100;28;20730;-88
2022/02/28 01:52:07;;;;;;;26.08;17.70;;;;;;;;;;5028020;28;20409;-89
2022/02/28 01:54:35;;;;;;;24.00;17.45;;;;;;;;;;5027774;28;20413;-86
2022/02/28 01:57:02;;;;;;;24.85;17.48;;;;;;;;;;5027317;28;20401;-89
2022/02/28 01:59:29;;;;;;;22.25;16.55;;;;;;;;;;5018258;28;20418;-88
2022/02/28 02:01:57;;;;;;;23.77;16.02;;;;;;;;;;5014538;28;20822;-89
2022/02/28 02:04:24;;;;;;;23.25;16.08;;;;;;;;;;5011085;28;20410;-89
2022/02/28 02:06:52;;;;;;;25.03;16.33;;;;;;;;;;5018138;28;20809;-89
2022/02/28 02:09:19;;;;;;;20.25;15.98;;;;;;;;;;5019229;28;20459;-88
2022/02/28 02:11:48;;;;;;;22.48;16.70;;;;;;;;;;5022810;28;20432;-88
2022/02/28 02:14:15;;;;;;;21.20;15.95;;;;;;;;;;5011617;28;20422;-89
2022/02/28 02:16:42;;;;;;;22.65;16.00;;;;;;;;;;5011146;28;20899;-88
2022/02/28 02:19:10;;;;;;;23.38;16.17;;;;;;;;;;5020943;28;20915;-88
2022/02/28 02:21:38;;;;;;;21.35;15.88;;;;;;;;;;5012984;28;20421;-87
2022/02/28 02:24:06;;;;;;;21.00;15.98;;;;;;;;;;5010857;28;20410;-89
2022/02/28 02:26:33;;;;;;;20.70;15.67;;;;;;;;;;4995182;28;20489;-87
2022/02/28 02:29:00;;;;;;;20.48;15.38;;;;;;;;;;5010786;28;20411;-89
2022/02/28 02:31:27;;;;;;;22.37;15.77;;;;;;;;;;5011131;28;20918;-89
2022/02/28 02:33:54;;;;;;;22.15;15.35;;;;;;;;;;5010759;28;20407;-86
2022/02/28 02:36:22;;;;;;;21.58;15.10;;;;;;;;;;5018227;28;20405;-89
2022/02/28 02:38:52;;;;;;;20.55;15.18;;;;;;;;;;5030898;28;20840;-88
2022/02/28 02:41:20;;;;;;;22.40;15.57;;;;;;;;;;5030249;28;20776;-88
2022/02/28 02:43:48;;;;;;;20.27;13.98;;;;;;;;;;5029884;28;20413;-89
2022/02/28 02:46:15;;;;;;;20.45;13.90;;;;;;;;;;5030662;28;20417;-89
2022/02/28 02:48:42;;;;;;;19.17;14.05;;;;;;;;;;5029921;28;20638;-89
2022/02/28 02:51:10;;;;;;;19.38;13.68;;;;;;;;;;5031516;28;20409;-88
2022/02/28 02:53:36;;;;;;;20.88;14.30;;;;;;;;;;5019237;28;20407;-89
2022/02/28 02:56:05;;;;;;;18.67;13.50;;;;;;;;;;5018309;28;20426;-88
2022/02/28 02:58:32;;;;;;;17.77;13.35;;;;;;;;;;5010085;28;20410;-87
2022/02/28 03:00:59;;;;;;;17.97;12.80;;;;;;;;;;5010587;28;21030;-88
2022/02/28 03:03:26;;;;;;;17.90;13.07;;;;;;;;;;5010291;28;20430;-88
2022/02/28 03:05:54;;;;;;;17.30;12.67;;;;;;;;;;5010474;28;20414;-89
2022/02/28 03:08:21;;;;;;;18.40;12.63;;;;;;;;;;5030548;28;20421;-88
2022/02/28 03:10:48;;;;;;;17.52;12.73;;;;;;;;;;5030467;28;20812;-88
2022/02/28 03:13:16;;;;;;;18.30;12.82;;;;;;;;;;5029733;28;20417;-88
2022/02/28 03:15:43;;;;;;;17.77;12.70;;;;;;;;;;5030213;28;20409;-87
2022/02/28 03:18:10;;;;;;;18.15;12.15;;;;;;;;;;5029994;28;20409;-89
2022/02/28 03:20:37;;;;;;;16.85;12.60;;;;;;;;;;5030231;28;20420;-88
2022/02/28 03:23:04;;;;;;;19.43;12.30;;;;;;;;;;5029789;28;20432;-90
2022/02/28 03:25:31;;;;;;;16.80;12.45;;;;;;;;;;5029904;28;20413;-89
2022/02/28 03:27:58;;;;;;;16.38;11.70;;;;;;;;;;5029855;28;20413;-88
2022/02/28 03:30:26;;;;;;;16.33;11.95;;;;;;;;;;5016160;28;20407;-89
2022/02/28 03:32:53;;;;;;;16.80;11.60;;;;;;;;;;5010437;28;20415;-89
2022/02/28 03:35:20;;;;;;;15.30;11.52;;;;;;;;;;5009887;28;20814;-88
2022/02/28 03:37:47;;;;;;;17.30;11.93;;;;;;;;;;5009989;28;20407;-88
2022/02/28 03:40:14;;;;;;;15.70;11.20;;;;;;;;;;5010306;28;20426;-89
2022/02/28 03:42:42;;;;;;;17.70;11.65;;;;;;;;;;5010030;28;20891;-89
2022/02/28 03:45:10;;;;;;;13.88;10.90;;;;;;;;;;5027811;28;20420;-88
2022/02/28 03:47:38;;;;;;;15.65;10.38;;;;;;;;;;5030066;28;20761;-88
2022/02/28 03:50:06;;;;;;;15.18;10.52;;;;;;;;;;5029710;28;20405;-88
2022/02/28 03:52:33;;;;;;;14.77;10.90;;;;;;;;;;5029690;28;20409;-89
2022/02/28 03:55:00;;;;;;;14.88;10.68;;;;;;;;;;5028291;28;20405;-89
2022/02/28 03:57:27;;;;;;;14.83;10.47;;;;;;;;;;5029752;28;20405;-88
2022/02/28 03:59:54;;;;;;;14.20;10.57;;;;;;;;;;5028836;28;20425;-89
2022/02/28 04:02:22;;;;;;;15.02;10.88;;;;;;;;;;5029350;28;20786;-88
2022/02/28 04:04:51;;;;;;;15.88;10.57;;;;;;;;;;5029377;28;20463;-89
2022/02/28 04:07:18;;;;;;;16.20;10.70;;;;;;;;;;5029289;28;20405;-89
2022/02/28 04:09:45;;;;;;;15.63;10.80;;;;;;;;;;5029227;28;20409;-88
2022/02/28 04:12:12;;;;;;;16.42;10.10;;;;;;;;;;5028981;28;20418;-89
2022/02/28 04:18:00;;;;;;;13.98;9.95;;;;;;;;;;5040905;22;20474;-92
2022/02/28 04:20:29;;;;;;;14.43;10.13;;;;;;;;;;5029819;28;20881;-91
2022/02/28 04:22:56;;;;;;;17.00;10.90;;;;;;;;;;5037808;28;20494;-91
2022/02/28 04:25:23;;;;;;;18.33;10.15;;;;;;;;;;5046052;28;20436;-92
2022/02/28 04:27:50;;;;;;;14.68;10.00;;;;;;;;;;5060478;28;20400;-91
2022/02/28 04:30:18;;;;;;;14.32;9.48;;;;;;;;;;5061755;28;20413;-92
2022/02/28 04:32:45;;;;;;;13.07;8.90;;;;;;;;;;5062846;28;20397;-92
2022/02/28 04:35:12;;;;;;;11.68;8.70;;;;;;;;;;5058306;28;20417;-91
2022/02/28 04:37:40;;;;;;;15.02;9.15;;;;;;;;;;5058050;28;20397;-92
2022/02/28 04:40:09;;;;;;;15.07;9.55;;;;;;;;;;5059165;28;20407;-91
2022/02/28 04:45:57;;;;;;;15.30;9.32;;;;;;;;;;5043686;28;20945;-91
2022/02/28 04:48:25;;;;;;;13.98;8.90;;;;;;;;;;5049664;28;20418;-91
2022/02/28 04:50:55;;;;;;;14.32;9.00;;;;;;;;;;5049637;28;20418;-91
2022/02/28 04:53:23;;;;;;;13.93;8.93;;;;;;;;;;5040106;28;21040;-91
2022/02/28 04:56:02;;;;;;;11.45;8.77;;;;;;;;;;5049533;28;20416;-92
2022/02/28 04:58:29;;;;;;;13.93;8.48;;;;;;;;;;5026915;28;20411;-92
2022/02/28 05:00:56;;;;;;;13.55;8.57;;;;;;;;;;5041324;28;20405;-91
2022/02/28 05:03:23;;;;;;;11.40;8.32;;;;;;;;;;5044620;28;20415;-90
2022/02/28 05:05:50;;;;;;;13.60;8.47;;;;;;;;;;5032501;28;20416;-91
2022/02/28 05:08:17;;;;;;;11.77;8.85;;;;;;;;;;5028407;28;20417;-91
2022/02/28 05:10:46;;;;;;;13.85;8.63;;;;;;;;;;5029098;28;20904;-92
2022/02/28 05:13:13;;;;;;;11.93;8.70;;;;;;;;;;5028872;28;20413;-91
2022/02/28 05:15:40;;;;;;;13.85;8.25;;;;;;;;;;5029329;28;20475;-92
2022/02/28 05:18:07;;;;;;;13.45;8.50;;;;;;;;;;5028570;28;20409;-91
2022/02/28 05:20:34;;;;;;;12.25;8.18;;;;;;;;;;5029127;28;20405;-91
2022/02/28 05:23:01;;;;;;;11.30;8.00;;;;;;;;;;5046530;28;20490;-91
2022/02/28 05:25:28;;;;;;;12.65;8.65;;;;;;;;;;5048211;28;21034;-92
2022/02/28 05:31:18;;;;;;;11.38;8.20;;;;;;;;;;5047875;28;20412;-91
2022/02/28 05:33:45;;;;;;;11.50;8.27;;;;;;;;;;5043229;28;20488;-91
2022/02/28 05:36:12;;;;;;;13.73;8.60;;;;;;;;;;5009231;28;20414;-92
2022/02/28 05:38:39;;;;;;;11.90;8.18;;;;;;;;;;5009830;28;20403;-91
2022/02/28 05:41:06;;;;;;;12.40;8.07;;;;;;;;;;5012181;28;20410;-91
2022/02/28 05:43:33;;;;;;;13.00;8.32;;;;;;;;;;5036209;28;20448;-92
2022/02/28 05:46:00;;;;;;;13.38;8.75;;;;;;;;;;5031360;28;20496;-92
2022/02/28 05:51:51;;;;;;;11.48;8.13;;;;;;;;;;5055916;28;20438;-91
2022/02/28 05:54:18;;;;;;;13.07;7.70;;;;;;;;;;5036979;28;20409;-91
2022/02/28 05:56:45;;;;;;;10.77;7.90;;;;;;;;;;5028363;28;20416;-92
2022/02/28 05:59:12;;;;;;;11.50;7.90;;;;;;;;;;5030260;28;20405;-92
2022/02/28 06:01:39;;;;;;;12.35;8.30;;;;;;;;;;5036170;28;20409;-91
2022/02/28 06:04:06;;;;;;;9.88;7.65;;;;;;;;;;5037009;28;20483;-91
2022/02/28 06:06:33;;;;;;;12.38;8.07;;;;;;;;;;5039338;28;20779;-90
2022/02/28 06:09:03;;;;;;;11.80;8.30;;;;;;;;;;5029966;28;20409;-92
2022/02/28 06:11:30;;;;;;;11.95;8.13;;;;;;;;;;5032649;28;20916;-91
2022/02/28 06:13:57;;;;;;;11.40;8.02;;;;;;;;;;5048074;28;20737;-92
2022/02/28 06:16:25;;;;;;;10.73;7.50;;;;;;;;;;5047874;28;20403;-92
2022/02/28 06:18:52;;;;;;;11.57;8.30;;;;;;;;;;5050548;28;20420;-91
2022/02/28 06:21:19;;;;;;;19.00;8.87;;;;;;;;;;5041484;28;20836;-91
2022/02/28 06:23:46;;;;;;;16.45;9.98;;;;;;;;;;5048916;28;20429;-91
2022/02/28 06:26:15;;;;;;;14.07;9.27;;;;;;;;;;5047213;28;20410;-89
2022/02/28 06:28:42;;;;;;;14.10;8.93;;;;;;;;;;5029994;28;20420;-91
2022/02/28 06:31:09;;;;;;;15.38;8.90;;;;;;;;;;5030799;28;20928;-92
2022/02/28 06:33:36;;;;;;;12.25;8.20;;;;;;;;;;5030739;28;20408;-91
2022/02/28 06:36:03;;;;;;;13.32;8.73;;;;;;;;;;5046838;28;20418;-91
2022/02/28 06:38:30;;;;;;;15.20;9.48;;;;;;;;;;5032387;28;20406;-92
2022/02/28 06:40:57;;;;;;;12.60;8.80;;;;;;;;;;5030798;28;20854;-92
2022/02/28 06:43:26;;;;;;;20.70;15.17;;;;;;;;;;5040101;28;20421;-91
2022/02/28 06:45:55;;;;;;;11.57;8.80;;;;;;;;;;5030778;28;20409;-92
2022/02/28 06:48:22;;;;;;;15.20;10.10;;;;;;;;;;5034620;28;20416;-92
2022/02/28 06:50:50;;;;;;;15.50;9.50;;;;;;;;;;5033260;28;20492;-91
2022/02/28 06:53:18;;;;;;;17.23;11.18;;;;;;;;;;5045830;28;20411;-92
2022/02/28 06:55:45;;;;;;;15.43;11.18;;;;;;;;;;5050508;28;20416;-92
2022/02/28 06:58:12;;;;;;;18.77;10.23;;;;;;;;;;5038116;28;20424;-91
2022/02/28 07:00:41;;;;;;;16.08;10.00;;;;;;;;;;5033429;28;20411;-92
2022/02/28 07:03:08;;;;;;;12.88;9.60;;;;;;;;;;5043303;28;20416;-92
2022/02/28 07:05:35;;;;;;;12.07;9.15;;;;;;;;;;5029822;28;20951;-92
2022/02/28 07:08:02;;;;;;;12.55;8.90;;;;;;;;;;5030078;28;20406;-92
2022/02/28 07:10:33;;;;;;;12.77;8.95;;;;;;;;;;5030030;28;20422;-92
2022/02/28 07:13:00;;;;;;;13.27;9.65;;;;;;;;;;5030217;28;20397;-92
2022/02/28 07:15:27;;;;;;;11.68;9.02;;;;;;;;;;5030095;28;20420;-93
2022/02/28 07:18:00;;;;;;;14.43;8.50;;;;;;;;;;5037632;28;21296;-91
2022/02/28 07:20:28;;;;;;;13.25;8.43;;;;;;;;;;5027490;28;20417;-91
2022/02/28 07:22:57;;;;;;;14.73;8.75;;;;;;;;;;5029758;28;20417;-91
2022/02/28 07:25:23;;;;;;;13.27;8.85;;;;;;;;;;5029694;28;20480;-91
2022/02/28 07:27:51;;;;;;;12.35;8.45;;;;;;;;;;5029672;28;20424;-92
2022/02/28 07:33:40;;;;;;;11.45;8.57;;;;;;;;;;5038342;28;20433;-91
2022/02/28 07:36:09;;;;;;;14.40;8.93;;;;;;;;;;5035955;28;20412;-92
2022/02/28 07:38:37;;;;;;;13.95;9.43;;;;;;;;;;5039399;28;20810;-90
2022/02/28 07:41:04;;;;;;;12.30;9.10;;;;;;;;;;5037324;28;20521;-91
2022/02/28 07:43:31;;;;;;;14.02;8.52;;;;;;;;;;5039181;28;20435;-91
2022/02/28 07:45:58;;;;;;;14.23;9.02;;;;;;;;;;5043751;28;20502;-90
2022/02/28 07:48:25;;;;;;;14.82;9.18;;;;;;;;;;5033377;28;20409;-91
2022/02/28 07:50:54;;;;;;;13.80;9.60;;;;;;;;;;5029689;28;20417;-93
2022/02/28 07:53:21;;;;;;;15.23;10.55;;;;;;;;;;5036667;28;20405;-92
2022/02/28 07:55:48;;;;;;;19.25;11.10;;;;;;;;;;5029501;28;20757;-92
2022/02/28 07:58:15;;;;;;;16.23;10.85;;;;;;;;;;5029499;28;20421;-92
2022/02/28 08:00:42;;;;;;;16.42;11.15;;;;;;;;;;5035328;28;20406;-92
2022/02/28 08:03:09;;;;;;;16.00;11.02;;;;;;;;;;5033899;28;20409;-93
2022/02/28 08:05:36;;;;;;;16.77;11.43;;;;;;;;;;5029288;28;20412;-92
2022/02/28 08:08:05;;;;;;;16.17;10.45;;;;;;;;;;5029570;28;20424;-93
2022/02/28 08:10:32;;;;;;;16.87;10.50;;;;;;;;;;5036350;28;20414;-92
2022/02/28 08:12:59;;;;;;;15.63;10.77;;;;;;;;;;5029243;28;20413;-92
2022/02/28 08:15:26;;;;;;;16.20;10.82;;;;;;;;;;5028977;28;20877;-91
2022/02/28 08:17:53;;;;;;;15.07;10.48;;;;;;;;;;5031952;28;20409;-92
2022/02/28 08:20:20;;;;;;;17.17;10.65;;;;;;;;;;5028736;28;20415;-92
2022/02/28 08:22:48;;;;;;;15.18;10.05;;;;;;;;;;5036294;28;20632;-93
2022/02/28 08:25:16;;;;;;;19.40;10.75;;;;;;;;;;5036221;28;20475;-92
2022/02/28 08:27:43;;;;;;;14.30;10.27;;;;;;;;;;5029072;28;21234;-92
2022/02/28 08:30:11;;;;;;;13.27;9.43;;;;;;;;;;5029394;28;20413;-92
2022/02/28 08:32:38;;;;;;;14.40;9.48;;;;;;;;;;5029407;28;20500;-92
2022/02/28 08:35:06;;;;;;;13.32;9.43;;;;;;;;;;5029284;28;20508;-91
2022/02/28 08:37:33;;;;;;;13.52;9.13;;;;;;;;;;5029096;28;20492;-92
2022/02/28 08:40:01;;;;;;;15.45;9.38;;;;;;;;;;5029579;28;20409;-93
2022/02/28 08:42:29;;;;;;;15.45;9.80;;;;;;;;;;5030008;28;20416;-92
2022/02/28 08:44:56;;;;;;;13.77;9.95;;;;;;;;;;5029159;28;20413;-92
2022/02/28 08:47:23;;;;;;;16.27;10.60;;;;;;;;;;5031770;28;20409;-93
2022/02/28 08:49:50;;;;;;;16.30;9.15;;;;;;;;;;5036185;28;20844;-92
2022/02/28 08:52:17;;;;;;;12.20;8.70;;;;;;;;;;5048876;28;20443;-93
2022/02/28 08:54:44;;;;;;;13.23;8.80;;;;;;;;;;5064553;28;20496;-93
2022/02/28 08:57:11;;;;;;;16.67;9.63;;;;;;;;;;5040115;28;20440;-92
2022/02/28 08:59:39;;;;;;;16.27;9.70;;;;;;;;;;5035596;28;20403;-92
2022/02/28 09:02:14;;;;;;;14.95;9.75;;;;;;;;;;5028706;28;20427;-91
2022/02/28 09:04:41;;;;;;;15.47;10.30;;;;;;;;;;5031025;28;20511;-90
2022/02/28 09:07:10;;;;;;;14.18;11.10;;;;;;;;;;5028309;28;20431;-92
2022/02/28 09:09:37;;;;;;;15.13;9.50;;;;;;;;;;5028306;28;20413;-92
2022/02/28 09:12:05;;;;;;;15.25;10.93;;;;;;;;;;5028418;28;20409;-92
2022/02/28 09:14:42;;;;;;;14.10;10.52;;;;;;;;;;5031773;28;20405;-91
2022/02/28 09:17:12;;;;;;;16.17;10.38;;;;;;;;;;5028378;28;20435;-92
2022/02/28 09:19:39;;;;;;;15.82;10.27;;;;;;;;;;5030904;28;20427;-91
2022/02/28 09:22:12;;;;;;;14.48;10.50;;;;;;;;;;5027847;28;20410;-92
2022/02/28 09:24:41;;;;;;;14.68;10.20;;;;;;;;;;5027432;28;20809;-93
2022/02/28 09:27:08;;;;;;;13.48;9.45;;;;;;;;;;5029606;28;20409;-92
2022/02/28 09:29:35;;;;;;;15.38;9.63;;;;;;;;;;5032667;28;20422;-92
2022/02/28 09:32:08;;;;;;;14.95;9.13;;;;;;;;;;5032221;28;21206;-91
2022/02/28 09:34:35;;;;;;;11.50;8.25;;;;;;;;;;5043109;28;20409;-92
2022/02/28 09:37:03;;;;;;;13.27;9.05;;;;;;;;;;5047271;28;20417;-91
2022/02/28 09:39:32;;;;;;;13.23;9.15;;;;;;;;;;5035645;28;20406;-91
2022/02/28 09:42:00;;;;;;;13.57;8.25;;;;;;;;;;5027960;28;20536;-92
2022/02/28 09:44:27;;;;;;;14.57;9.15;;;;;;;;;;5027844;28;20413;-92
2022/02/28 09:46:54;;;;;;;11.07;9.13;;;;;;;;;;5020743;28;20409;-92
2022/02/28 09:49:23;;;;;;;11.20;8.25;;;;;;;;;;5042381;28;20414;-91
2022/02/28 09:51:50;;;;;;;12.63;8.40;;;;;;;;;;5028325;28;20424;-91
2022/02/28 09:54:17;;;;;;;12.38;8.73;;;;;;;;;;5031866;28;20838;-92
2022/02/28 09:56:44;;;;;;;12.98;9.27;;;;;;;;;;5031986;28;20416;-92
2022/02/28 09:59:13;;;;;;;13.52;8.80;;;;;;;;;;5037671;28;20457;-92
2022/02/28 10:01:45;;;;;;;12.38;8.73;;;;;;;;;;5032352;28;20410;-92
2022/02/28 10:04:13;;;;;;;11.53;8.37;;;;;;;;;;5031669;28;20421;-92
2022/02/28 10:06:43;;;;;;;12.52;8.68;;;;;;;;;;5031352;28;20413;-93
2022/02/28 10:09:16;;;;;;;12.30;9.00;;;;;;;;;;5035781;28;20469;-92
2022/02/28 10:11:43;;;;;;;13.77;9.50;;;;;;;;;;5031029;28;20419;-92
2022/02/28 10:14:12;;;;;;;15.43;9.45;;;;;;;;;;5031611;28;20402;-92
2022/02/28 10:16:40;;;;;;;13.03;9.07;;;;;;;;;;5031456;28;20437;-91
2022/02/28 10:19:09;;;;;;;13.95;8.98;;;;;;;;;;5030398;28;20417;-92
2022/02/28 10:21:44;;;;;;;11.32;8.82;;;;;;;;;;5031016;28;20440;-92
2022/02/28 10:24:14;;;;;;;12.20;8.93;;;;;;;;;;5030957;28;20425;-92
2022/02/28 10:26:45;;;;;;;13.93;9.70;;;;;;;;;;5038025;28;20417;-92
2022/02/28 10:29:13;;;;;;;13.98;9.65;;;;;;;;;;5033568;28;20413;-92
2022/02/28 10:31:42;;;;;;;14.52;9.50;;;;;;;;;;5030820;28;20862;-91
2022/02/28 10:34:14;;;;;;;12.05;9.82;;;;;;;;;;5030509;28;20405;-90
2022/02/28 10:36:52;;;;;;;15.47;10.63;;;;;;;;;;5030411;28;20440;-91
2022/02/28 10:39:26;;;;;;;13.55;10.48;;;;;;;;;;5032011;28;20422;-92
2022/02/28 10:41:56;;;;;;;14.90;10.20;;;;;;;;;;5014998;28;20934;-92
2022/02/28 10:44:26;;;;;;;14.20;9.77;;;;;;;;;;5033311;28;20416;-92
2022/02/28 10:46:57;;;;;;;13.60;9.80;;;;;;;;;;5030507;28;20757;-93
2022/02/28 10:49:33;;;;;;;13.27;9.43;;;;;;;;;;5033685;28;21019;-91
2022/02/28 10:52:08;;;;;;;14.82;10.07;;;;;;;;;;5032950;28;20437;-93
2022/02/28 10:54:37;;;;;;;12.82;10.00;;;;;;;;;;5032170;28;20419;-92
2022/02/28 10:57:12;;;;;;;11.57;9.15;;;;;;;;;;5033747;28;20421;-92
2022/02/28 10:59:44;;;;;;;14.15;9.35;;;;;;;;;;5027779;28;20405;-92
2022/02/28 11:02:21;;;;;;;14.80;9.83;;;;;;;;;;5023477;28;20449;-92
2022/02/28 11:04:49;;;;;;;14.88;10.05;;;;;;;;;;5032460;28;20451;-92
2022/02/28 11:07:25;;;;;;;12.70;9.50;;;;;;;;;;5034308;28;20413;-92
2022/02/28 11:09:52;;;;;;;15.23;10.00;;;;;;;;;;5025809;28;20421;-91
2022/02/28 11:12:28;;;;;;;15.35;9.90;;;;;;;;;;5029011;28;20421;-92
2022/02/28 11:14:58;;;;;;;14.25;10.25;;;;;;;;;;5028507;28;20407;-92
2022/02/28 11:17:27;;;;;;;14.33;9.47;;;;;;;;;;5035512;28;20408;-92
2022/02/28 11:19:58;;;;;;;13.63;9.38;;;;;;;;;;5027893;28;20928;-93
2022/02/28 11:22:28;;;;;;;12.73;9.13;;;;;;;;;;5034703;28;20908;-92
2022/02/28 11:24:57;;;;;;;12.53;8.67;;;;;;;;;;5029332;28;20489;-92
2022/02/28 11:27:26;;;;;;;12.63;10.00;;;;;;;;;;5028257;28;20411;-94
2022/02/28 11:29:58;;;;;;;14.00;9.70;;;;;;;;;;5033851;28;20443;-93
2022/02/28 11:32:27;;;;;;;12.82;9.45;;;;;;;;;;5032075;28;20463;-92
2022/02/28 11:34:56;;;;;;;12.95;9.82;;;;;;;;;;5034608;28;20836;-92
2022/02/28 11:37:25;;;;;;;13.15;9.77;;;;;;;;;;5033418;28;20981;-93
2022/02/28 11:40:04;;;;;;;11.80;9.48;;;;;;;;;;5040780;28;20538;-92
2022/02/28 11:43:03;;;;;;;11.93;9.18;;;;;;;;;;5035418;28;20522;-92
2022/02/28 11:45:32;;;;;;;12.70;8.63;;;;;;;;;;5036256;28;20455;-92
2022/02/28 11:48:17;;;;;;;11.60;8.75;;;;;;;;;;5041312;28;20923;-92
2022/02/28 11:50:52;;;;;;;13.10;9.25;;;;;;;;;;5040528;28;20815;-92
2022/02/28 11:53:39;;;;;;;15.25;10.40;;;;;;;;;;5029926;28;20818;-92
2022/02/28 11:56:58;;;;;;;14.07;9.60;;;;;;;;;;5039487;28;20685;-92
2022/02/28 11:59:39;;;;;;;14.30;9.63;;;;;;;;;;5029990;28;20461;-93
2022/02/28 12:02:24;;;;;;;12.93;9.55;;;;;;;;;;5039738;28;20491;-92
2022/02/28 12:04:52;;;;;;;12.82;9.75;;;;;;;;;;5041194;28;20419;-93
2022/02/28 12:07:31;;;;;;;12.73;10.57;;;;;;;;;;5040052;28;20569;-93
2022/02/28 12:10:05;;;;;;;13.97;10.43;;;;;;;;;;5034673;28;22309;-93
2022/02/28 12:12:35;;;;;;;14.75;10.23;;;;;;;;;;5040548;28;20971;-93
2022/02/28 12:15:25;;;;;;;12.60;9.77;;;;;;;;;;5038379;28;20847;-93
2022/02/28 12:18:10;;;;;;;12.15;9.45;;;;;;;;;;5040832;28;20477;-94
2022/02/28 12:20:47;;;;;;;13.75;9.80;;;;;;;;;;5040046;28;20468;-93
2022/02/28 12:23:25;;;;;;;16.52;10.88;;;;;;;;;;5036632;28;20554;-94
2022/02/28 12:26:12;;;;;;;13.25;10.10;;;;;;;;;;5027190;28;20486;-93
2022/02/28 12:28:51;;;;;;;14.57;9.50;;;;;;;;;;5033751;28;20401;-93
2022/02/28 12:31:37;;;;;;;13.10;9.85;;;;;;;;;;5044788;28;20881;-91
2022/02/28 12:34:10;;;;;;;14.85;10.50;;;;;;;;;;5040431;28;20457;-91
2022/02/28 12:36:40;;;;;;;13.10;10.17;;;;;;;;;;5056099;28;20505;-92
2022/02/28 12:39:12;;;;;;;14.18;9.93;;;;;;;;;;5065943;28;20446;-90
2022/02/28 12:41:41;;;;;;;13.57;9.90;;;;;;;;;;5055747;28;20514;-93
2022/02/28 12:44:15;;;;;;;15.02;10.32;;;;;;;;;;5042528;28;20508;-92
2022/02/28 12:46:51;;;;;;;13.02;10.10;;;;;;;;;;5035935;28;20487;-92
2022/02/28 12:49:19;;;;;;;13.60;9.88;;;;;;;;;;5039559;28;20510;-93
2022/02/28 12:51:48;;;;;;;11.60;9.52;;;;;;;;;;5040603;28;20453;-92
2022/02/28 12:54:16;;;;;;;13.77;10.73;;;;;;;;;;5041049;28;20816;-93
2022/02/28 12:56:45;;;;;;;14.88;10.45;;;;;;;;;;5034871;28;20465;-93
2022/02/28 12:59:12;;;;;;;14.02;10.50;;;;;;;;;;5035585;28;20923;-93
2022/02/28 13:01:40;;;;;;;14.07;10.15;;;;;;;;;;5033444;28;20970;-93
2022/02/28 13:04:11;;;;;;;13.27;9.63;;;;;;;;;;5042255;28;20417;-93
2022/02/28 13:06:39;;;;;;;14.65;10.75;;;;;;;;;;5035103;28;20562;-93
2022/02/28 13:09:08;;;;;;;15.40;10.57;;;;;;;;;;5033272;28;20919;-93
2022/02/28 13:11:44;;;;;;;16.55;10.85;;;;;;;;;;5032348;28;20415;-93
2022/02/28 13:14:28;;;;;;;14.17;10.43;;;;;;;;;;5030683;28;20457;-93
2022/02/28 13:17:01;;;;;;;12.43;10.27;;;;;;;;;;5027287;28;20435;-92
2022/02/28 13:19:32;;;;;;;14.50;10.70;;;;;;;;;;5030790;28;20412;-93
2022/02/28 13:22:07;;;;;;;14.23;10.52;;;;;;;;;;5028547;28;20429;-92
2022/02/28 13:24:38;;;;;;;13.95;10.27;;;;;;;;;;5025473;28;20406;-92
2022/02/28 13:27:06;;;;;;;14.90;10.57;;;;;;;;;;5033870;28;20430;-93
2022/02/28 13:29:42;;;;;;;12.57;10.45;;;;;;;;;;5044374;28;20409;-93
2022/02/28 13:32:13;;;;;;;14.57;11.43;;;;;;;;;;5030784;28;20401;-93
2022/02/28 13:34:48;;;;;;;13.48;11.23;;;;;;;;;;5038652;28;20407;-93
2022/02/28 13:37:20;;;;;;;13.63;11.27;;;;;;;;;;5045300;28;20453;-94
2022/02/28 13:39:52;;;;;;;15.38;10.63;;;;;;;;;;5038875;28;20436;-93
2022/02/28 13:42:23;;;;;;;16.10;11.10;;;;;;;;;;5036371;28;20425;-93
2022/02/28 13:44:53;;;;;;;14.57;10.52;;;;;;;;;;5045423;28;20427;-93
2022/02/28 13:47:24;;;;;;;15.50;11.23;;;;;;;;;;5045752;28;20977;-93
2022/02/28 13:49:57;;;;;;;14.93;11.05;;;;;;;;;;5045975;28;20587;-93
2022/02/28 13:52:27;;;;;;;14.10;10.85;;;;;;;;;;5040241;28;20415;-93
2022/02/28 13:54:56;;;;;;;16.38;11.30;;;;;;;;;;5039711;28;20407;-92
2022/02/28 13:57:34;;;;;;;13.95;10.35;;;;;;;;;;5047646;28;20412;-93
2022/02/28 14:00:15;;;;;;;14.27;10.63;;;;;;;;;;5041404;28;20411;-93
2022/02/28 14:02:56;;;;;;;13.43;10.70;;;;;;;;;;5046113;28;20416;-93
2022/02/28 14:05:29;;;;;;;15.67;11.20;;;;;;;;;;5036173;28;20892;-92
2022/02/28 14:08:12;;;;;;;13.45;10.85;;;;;;;;;;5038535;28;20417;-93
2022/02/28 14:11:11;;;;;;;12.30;10.43;;;;;;;;;;5043524;28;20407;-92
2022/02/28 14:13:43;;;;;;;12.20;10.23;;;;;;;;;;5042945;28;20511;-92
2022/02/28 14:16:15;;;;;;;14.05;11.05;;;;;;;;;;5043184;28;20466;-94
2022/02/28 14:19:05;;;;;;;13.55;10.70;;;;;;;;;;5041356;28;20979;-93
2022/02/28 14:21:42;;;;;;;13.13;10.80;;;;;;;;;;5041607;28;20431;-94
2022/02/28 14:24:10;;;;;;;12.95;10.63;;;;;;;;;;5038425;28;20414;-94
2022/02/28 14:26:44;;;;;;;13.65;11.15;;;;;;;;;;5044206;28;20415;-94
2022/02/28 14:29:14;;;;;;;13.10;11.10;;;;;;;;;;5040751;28;20467;-94
2022/02/28 14:31:45;;;;;;;13.45;11.00;;;;;;;;;;5044409;28;20404;-94
2022/02/28 14:34:13;;;;;;;14.40;10.73;;;;;;;;;;5045275;28;20975;-95
2022/02/28 14:36:43;;;;;;;14.48;11.07;;;;;;;;;;5037849;28;20424;-94
2022/02/28 14:39:23;;;;;;;15.32;11.93;;;;;;;;;;5036825;28;20414;-94
2022/02/28 14:41:52;;;;;;;14.55;11.32;;;;;;;;;;5041374;28;20422;-92
2022/02/28 14:44:24;;;;;;;12.90;11.10;;;;;;;;;;5046592;28;20734;-92
2022/02/28 14:46:54;;;;;;;14.40;10.95;;;;;;;;;;5043337;28;20422;-93
2022/02/28 14:49:22;;;;;;;13.27;10.77;;;;;;;;;;5043309;28;20884;-92
2022/02/28 14:51:51;;;;;;;13.30;10.50;;;;;;;;;;5038831;28;20468;-94
2022/02/28 14:54:34;;;;;;;13.15;10.15;;;;;;;;;;5045524;28;20498;-93